Terminal Aerodrome Forecast
Issued by NWS Sioux Falls, SD

Home | Current Version | Previous Version | Text Only | Print | Product List | Glossary Off
Versions: 1 2 3 4 5 6 7 8 9 10 11 12 13 14 15

559
FTUS43 KFSD 260352 AAB
TAFFSD
TAF AMD
KFSD 260352Z 2604/2624 35013G19KT P6SM VCSH OVC010
      TEMPO 2604/2606 BKN009
     FM260600 34014G21KT P6SM OVC009
     FM261500 33017G25KT P6SM OVC010
     FM262100 34014G21KT P6SM OVC020=

USA.gov is the U.S. government's official web portal to all federal, state and local government web resources and services.